sensor_id;sensor_type;location;lat;lon;timestamp;temperature;humidity
15013;DHT22;7603;49.432;11.418;2022-09-01T00:01:21;15.80;99.90
15013;DHT22;7603;49.432;11.418;2022-09-01T00:03:50;15.70;99.90
15013;DHT22;7603;49.432;11.418;2022-09-01T00:06:22;15.70;99.90
15013;DHT22;7603;49.432;11.418;2022-09-01T00:08:53;15.70;99.90
15013;DHT22;7603;49.432;11.418;2022-09-01T00:11:21;15.70;99.90
15013;DHT22;7603;49.432;11.418;2022-09-01T00:13:47;15.70;99.90
15013;DHT22;7603;49.432;11.418;2022-09-01T00:16:14;15.70;99.90
15013;DHT22;7603;49.432;11.418;2022-09-01T00:18:42;15.70;99.90
15013;DHT22;7603;49.432;11.418;2022-09-01T00:21:11;15.70;99.90
15013;DHT22;7603;49.432;11.418;2022-09-01T00:23:37;15.70;99.90
15013;DHT22;7603;49.432;11.418;2022-09-01T00:26:03;15.70;99.90
15013;DHT22;7603;49.432;11.418;2022-09-01T00:28:32;15.70;99.90
15013;DHT22;7603;49.432;11.418;2022-09-01T00:30:58;15.70;99.90
15013;DHT22;7603;49.432;11.418;2022-09-01T00:33:24;15.70;99.90
15013;DHT22;7603;49.432;11.418;2022-09-01T00:35:49;15.70;99.90
15013;DHT22;7603;49.432;11.418;2022-09-01T00:38:15;15.70;99.90
15013;DHT22;7603;49.432;11.418;2022-09-01T00:40:40;15.70;99.90
15013;DHT22;7603;49.432;11.418;2022-09-01T00:43:45;15.60;99.90
15013;DHT22;7603;49.432;11.418;2022-09-01T00:46:17;15.60;99.90
15013;DHT22;7603;49.432;11.418;2022-09-01T00:48:44;15.60;99.90
15013;DHT22;7603;49.432;11.418;2022-09-01T00:51:11;15.60;99.90
15013;DHT22;7603;49.432;11.418;2022-09-01T00:53:39;15.60;99.90
15013;DHT22;7603;49.432;11.418;2022-09-01T00:56:07;15.60;99.90
15013;DHT22;7603;49.432;11.418;2022-09-01T00:58:35;15.60;99.90
15013;DHT22;7603;49.432;11.418;2022-09-01T01:01:01;15.60;99.90
15013;DHT22;7603;49.432;11.418;2022-09-01T01:03:27;15.50;99.90
15013;DHT22;7603;49.432;11.418;2022-09-01T01:05:57;15.50;99.90
15013;DHT22;7603;49.432;11.418;2022-09-01T01:08:32;15.50;99.90
15013;DHT22;7603;49.432;11.418;2022-09-01T01:11:00;15.50;99.90
15013;DHT22;7603;49.432;11.418;2022-09-01T01:13:26;15.50;99.90
15013;DHT22;7603;49.432;11.418;2022-09-01T01:16:02;15.50;99.90
15013;DHT22;7603;49.432;11.418;2022-09-01T01:18:28;15.50;99.90
15013;DHT22;7603;49.432;11.418;2022-09-01T01:21:05;15.50;99.90
15013;DHT22;7603;49.432;11.418;2022-09-01T01:23:56;15.50;99.90
15013;DHT22;7603;49.432;11.418;2022-09-01T01:26:25;15.50;99.90
15013;DHT22;7603;49.432;11.418;2022-09-01T01:28:51;15.50;99.90
15013;DHT22;7603;49.432;11.418;2022-09-01T01:31:19;15.50;99.90
15013;DHT22;7603;49.432;11.418;2022-09-01T01:33:50;15.50;99.90
15013;DHT22;7603;49.432;11.418;2022-09-01T01:36:20;15.40;99.90
15013;DHT22;7603;49.432;11.418;2022-09-01T01:38:56;15.40;99.90
15013;DHT22;7603;49.432;11.418;2022-09-01T01:41:26;15.40;99.90
15013;DHT22;7603;49.432;11.418;2022-09-01T01:43:52;15.30;99.90
15013;DHT22;7603;49.432;11.418;2022-09-01T01:46:18;15.30;99.90
15013;DHT22;7603;49.432;11.418;2022-09-01T01:48:44;15.20;99.90
15013;DHT22;7603;49.432;11.418;2022-09-01T01:51:11;15.10;99.90
15013;DHT22;7603;49.432;11.418;2022-09-01T01:53:38;15.00;99.90
15013;DHT22;7603;49.432;11.418;2022-09-01T01:56:04;15.00;99.90
15013;DHT22;7603;49.432;11.418;2022-09-01T01:58:32;14.90;99.90
15013;DHT22;7603;49.432;11.418;2022-09-01T02:00:58;14.80;99.90
15013;DHT22;7603;49.432;11.418;2022-09-01T02:03:26;14.80;99.90
15013;DHT22;7603;49.432;11.418;2022-09-01T02:05:53;14.70;99.90
15013;DHT22;7603;49.432;11.418;2022-09-01T02:08:22;14.60;99.90
15013;DHT22;7603;49.432;11.418;2022-09-01T02:10:52;14.60;99.90
15013;DHT22;7603;49.432;11.418;2022-09-01T02:13:20;14.50;99.90
15013;DHT22;7603;49.432;11.418;2022-09-01T02:15:52;14.40;99.90
15013;DHT22;7603;49.432;11.418;2022-09-01T02:18:19;14.30;99.90
15013;DHT22;7603;49.432;11.418;2022-09-01T02:20:46;14.20;99.90
15013;DHT22;7603;49.432;11.418;2022-09-01T02:23:14;14.20;99.90
15013;DHT22;7603;49.432;11.418;2022-09-01T02:25:44;14.20;99.90
15013;DHT22;7603;49.432;11.418;2022-09-01T02:28:11;14.20;99.90
15013;DHT22;7603;49.432;11.418;2022-09-01T02:30:41;14.10;99.90
15013;DHT22;7603;49.432;11.418;2022-09-01T02:33:08;14.00;99.90
15013;DHT22;7603;49.432;11.418;2022-09-01T02:35:35;14.00;99.90
15013;DHT22;7603;49.432;11.418;2022-09-01T02:38:05;13.90;99.90
15013;DHT22;7603;49.432;11.418;2022-09-01T02:40:32;13.90;99.90
15013;DHT22;7603;49.432;11.418;2022-09-01T02:42:59;13.80;99.90
15013;DHT22;7603;49.432;11.418;2022-09-01T02:45:26;13.70;99.90
15013;DHT22;7603;49.432;11.418;2022-09-01T02:47:54;13.60;99.90
15013;DHT22;7603;49.432;11.418;2022-09-01T02:50:22;13.50;99.90
15013;DHT22;7603;49.432;11.418;2022-09-01T02:52:49;13.40;99.90
15013;DHT22;7603;49.432;11.418;2022-09-01T02:55:17;13.30;99.90
15013;DHT22;7603;49.432;11.418;2022-09-01T02:57:45;13.20;99.90
15013;DHT22;7603;49.432;11.418;2022-09-01T03:00:14;13.20;99.90
15013;DHT22;7603;49.432;11.418;2022-09-01T03:03:06;13.10;99.90
15013;DHT22;7603;49.432;11.418;2022-09-01T03:05:32;13.00;99.90
15013;DHT22;7603;49.432;11.418;2022-09-01T03:08:06;12.90;99.90
15013;DHT22;7603;49.432;11.418;2022-09-01T03:10:36;12.80;99.90
15013;DHT22;7603;49.432;11.418;2022-09-01T03:13:05;12.70;99.90
15013;DHT22;7603;49.432;11.418;2022-09-01T03:15:31;12.70;99.90
15013;DHT22;7603;49.432;11.418;2022-09-01T03:17:59;12.60;99.90
15013;DHT22;7603;49.432;11.418;2022-09-01T03:20:26;12.50;99.90
15013;DHT22;7603;49.432;11.418;2022-09-01T03:22:52;12.50;99.90
15013;DHT22;7603;49.432;11.418;2022-09-01T03:25:18;12.40;99.90
15013;DHT22;7603;49.432;11.418;2022-09-01T03:27:44;12.30;99.90
15013;DHT22;7603;49.432;11.418;2022-09-01T03:30:10;12.30;99.90
15013;DHT22;7603;49.432;11.418;2022-09-01T03:32:36;12.30;99.90
15013;DHT22;7603;49.432;11.418;2022-09-01T03:35:03;12.30;99.90
15013;DHT22;7603;49.432;11.418;2022-09-01T03:37:29;12.20;99.90
15013;DHT22;7603;49.432;11.418;2022-09-01T03:39:54;12.20;99.90
15013;DHT22;7603;49.432;11.418;2022-09-01T03:42:21;12.20;99.90
15013;DHT22;7603;49.432;11.418;2022-09-01T03:44:50;12.20;99.90
15013;DHT22;7603;49.432;11.418;2022-09-01T03:47:17;12.20;99.90
15013;DHT22;7603;49.432;11.418;2022-09-01T03:49:46;12.20;99.90
15013;DHT22;7603;49.432;11.418;2022-09-01T03:52:14;12.20;99.90
15013;DHT22;7603;49.432;11.418;2022-09-01T03:54:41;12.20;99.90
15013;DHT22;7603;49.432;11.418;2022-09-01T03:57:08;12.30;99.90
15013;DHT22;7603;49.432;11.418;2022-09-01T03:59:35;12.30;99.90
15013;DHT22;7603;49.432;11.418;2022-09-01T04:02:03;12.40;99.90
15013;DHT22;7603;49.432;11.418;2022-09-01T04:04:29;12.40;99.90
15013;DHT22;7603;49.432;11.418;2022-09-01T04:06:58;12.50;99.90
15013;DHT22;7603;49.432;11.418;2022-09-01T04:09:25;12.50;99.90
15013;DHT22;7603;49.432;11.418;2022-09-01T04:11:52;12.50;99.90
15013;DHT22;7603;49.432;11.418;2022-09-01T04:14:18;12.50;99.90
15013;DHT22;7603;49.432;11.418;2022-09-01T04:16:45;12.50;99.90
15013;DHT22;7603;49.432;11.418;2022-09-01T04:19:34;12.50;99.90
15013;DHT22;7603;49.432;11.418;2022-09-01T04:22:01;12.40;99.90
15013;DHT22;7603;49.432;11.418;2022-09-01T04:24:31;12.40;99.90
15013;DHT22;7603;49.432;11.418;2022-09-01T04:26:58;12.30;99.90
15013;DHT22;7603;49.432;11.418;2022-09-01T04:29:26;12.20;99.90
15013;DHT22;7603;49.432;11.418;2022-09-01T04:31:57;12.20;99.90
15013;DHT22;7603;49.432;11.418;2022-09-01T04:34:27;12.10;99.90
15013;DHT22;7603;49.432;11.418;2022-09-01T04:36:53;12.00;99.90
15013;DHT22;7603;49.432;11.418;2022-09-01T04:39:20;12.00;99.90
15013;DHT22;7603;49.432;11.418;2022-09-01T04:41:46;11.90;99.90
15013;DHT22;7603;49.432;11.418;2022-09-01T04:44:13;11.90;99.90
15013;DHT22;7603;49.432;11.418;2022-09-01T04:46:44;11.80;99.90
15013;DHT22;7603;49.432;11.418;2022-09-01T04:49:16;11.80;99.90
15013;DHT22;7603;49.432;11.418;2022-09-01T04:51:49;11.80;99.90
15013;DHT22;7603;49.432;11.418;2022-09-01T04:54:15;11.80;99.90
15013;DHT22;7603;49.432;11.418;2022-09-01T04:56:42;11.80;99.90
15013;DHT22;7603;49.432;11.418;2022-09-01T04:59:09;11.80;99.90
15013;DHT22;7603;49.432;11.418;2022-09-01T05:01:36;11.80;99.90
15013;DHT22;7603;49.432;11.418;2022-09-01T05:04:22;11.80;99.90
15013;DHT22;7603;49.432;11.418;2022-09-01T05:06:51;11.90;99.90
15013;DHT22;7603;49.432;11.418;2022-09-01T05:09:24;11.90;99.90
15013;DHT22;7603;49.432;11.418;2022-09-01T05:11:51;11.90;99.90
15013;DHT22;7603;49.432;11.418;2022-09-01T05:14:18;12.00;99.90
15013;DHT22;7603;49.432;11.418;2022-09-01T05:16:44;12.10;99.90
15013;DHT22;7603;49.432;11.418;2022-09-01T05:19:11;12.10;99.90
15013;DHT22;7603;49.432;11.418;2022-09-01T05:21:41;12.20;99.90
15013;DHT22;7603;49.432;11.418;2022-09-01T05:24:18;12.20;99.90
15013;DHT22;7603;49.432;11.418;2022-09-01T05:26:46;12.30;99.90
15013;DHT22;7603;49.432;11.418;2022-09-01T05:29:13;12.30;99.90
15013;DHT22;7603;49.432;11.418;2022-09-01T05:31:47;12.40;99.90
15013;DHT22;7603;49.432;11.418;2022-09-01T05:34:14;12.40;99.90
15013;DHT22;7603;49.432;11.418;2022-09-01T05:36:45;12.50;99.90
15013;DHT22;7603;49.432;11.418;2022-09-01T05:39:14;12.60;99.90
15013;DHT22;7603;49.432;11.418;2022-09-01T05:41:41;12.60;99.90
15013;DHT22;7603;49.432;11.418;2022-09-01T05:44:08;12.70;99.90
15013;DHT22;7603;49.432;11.418;2022-09-01T05:46:36;12.80;99.90
15013;DHT22;7603;49.432;11.418;2022-09-01T05:49:02;13.00;99.90
15013;DHT22;7603;49.432;11.418;2022-09-01T05:51:31;13.10;99.90
15013;DHT22;7603;49.432;11.418;2022-09-01T05:53:58;13.20;99.90
15013;DHT22;7603;49.432;11.418;2022-09-01T05:56:26;13.40;99.90
15013;DHT22;7603;49.432;11.418;2022-09-01T05:58:52;13.50;99.90
15013;DHT22;7603;49.432;11.418;2022-09-01T06:01:24;13.60;99.90
15013;DHT22;7603;49.432;11.418;2022-09-01T06:03:52;13.70;99.90
15013;DHT22;7603;49.432;11.418;2022-09-01T06:06:20;13.90;99.90
15013;DHT22;7603;49.432;11.418;2022-09-01T06:08:50;14.00;99.90
15013;DHT22;7603;49.432;11.418;2022-09-01T06:11:17;14.10;99.90
15013;DHT22;7603;49.432;11.418;2022-09-01T06:13:44;14.20;99.90
15013;DHT22;7603;49.432;11.418;2022-09-01T06:16:15;14.40;99.90
15013;DHT22;7603;49.432;11.418;2022-09-01T06:18:42;14.50;99.90
15013;DHT22;7603;49.432;11.418;2022-09-01T06:21:09;14.60;99.90
15013;DHT22;7603;49.432;11.418;2022-09-01T06:23:40;14.70;99.90
15013;DHT22;7603;49.432;11.418;2022-09-01T06:26:14;14.90;99.90
15013;DHT22;7603;49.432;11.418;2022-09-01T06:28:41;14.90;99.90
15013;DHT22;7603;49.432;11.418;2022-09-01T06:31:07;15.10;99.90
15013;DHT22;7603;49.432;11.418;2022-09-01T06:33:33;15.30;99.90
15013;DHT22;7603;49.432;11.418;2022-09-01T06:36:00;15.40;99.90
15013;DHT22;7603;49.432;11.418;2022-09-01T06:38:28;15.50;99.90
15013;DHT22;7603;49.432;11.418;2022-09-01T06:41:02;15.70;99.90
15013;DHT22;7603;49.432;11.418;2022-09-01T06:43:29;15.90;99.90
15013;DHT22;7603;49.432;11.418;2022-09-01T06:45:55;16.10;99.90
15013;DHT22;7603;49.432;11.418;2022-09-01T06:48:21;16.20;99.90
15013;DHT22;7603;49.432;11.418;2022-09-01T06:50:48;16.30;99.90
15013;DHT22;7603;49.432;11.418;2022-09-01T06:53:14;16.50;99.90
15013;DHT22;7603;49.432;11.418;2022-09-01T06:55:43;16.60;99.90
15013;DHT22;7603;49.432;11.418;2022-09-01T06:58:13;16.80;99.90
15013;DHT22;7603;49.432;11.418;2022-09-01T07:00:40;16.90;99.90
15013;DHT22;7603;49.432;11.418;2022-09-01T07:03:08;17.20;99.90
15013;DHT22;7603;49.432;11.418;2022-09-01T07:05:38;17.40;99.90
15013;DHT22;7603;49.432;11.418;2022-09-01T07:08:05;17.80;99.90
15013;DHT22;7603;49.432;11.418;2022-09-01T07:10:39;18.10;99.90
15013;DHT22;7603;49.432;11.418;2022-09-01T07:13:13;18.40;99.90
15013;DHT22;7603;49.432;11.418;2022-09-01T07:15:42;18.70;99.90
15013;DHT22;7603;49.432;11.418;2022-09-01T07:18:08;19.00;99.90
15013;DHT22;7603;49.432;11.418;2022-09-01T07:20:40;19.20;99.90
15013;DHT22;7603;49.432;11.418;2022-09-01T07:23:07;19.40;99.90
15013;DHT22;7603;49.432;11.418;2022-09-01T07:25:33;19.60;99.90
15013;DHT22;7603;49.432;11.418;2022-09-01T07:28:04;19.70;99.90
15013;DHT22;7603;49.432;11.418;2022-09-01T07:30:30;19.80;99.90
15013;DHT22;7603;49.432;11.418;2022-09-01T07:32:56;20.00;99.90
15013;DHT22;7603;49.432;11.418;2022-09-01T07:35:22;20.10;99.90
15013;DHT22;7603;49.432;11.418;2022-09-01T07:37:48;20.30;99.90
15013;DHT22;7603;49.432;11.418;2022-09-01T07:40:17;20.50;99.90
15013;DHT22;7603;49.432;11.418;2022-09-01T07:42:46;20.60;99.90
15013;DHT22;7603;49.432;11.418;2022-09-01T07:45:14;20.70;99.90
15013;DHT22;7603;49.432;11.418;2022-09-01T07:47:42;20.90;99.90
15013;DHT22;7603;49.432;11.418;2022-09-01T07:50:11;21.00;99.90
15013;DHT22;7603;49.432;11.418;2022-09-01T07:52:40;21.10;99.90
15013;DHT22;7603;49.432;11.418;2022-09-01T07:55:13;21.20;99.90
15013;DHT22;7603;49.432;11.418;2022-09-01T07:57:41;21.40;99.90
15013;DHT22;7603;49.432;11.418;2022-09-01T08:00:09;21.30;99.90
15013;DHT22;7603;49.432;11.418;2022-09-01T08:02:36;21.30;99.90
15013;DHT22;7603;49.432;11.418;2022-09-01T08:05:04;21.20;99.90
15013;DHT22;7603;49.432;11.418;2022-09-01T08:07:35;21.20;99.90
15013;DHT22;7603;49.432;11.418;2022-09-01T08:10:02;21.20;99.90
15013;DHT22;7603;49.432;11.418;2022-09-01T08:12:28;21.10;99.90
15013;DHT22;7603;49.432;11.418;2022-09-01T08:14:53;21.10;99.90
15013;DHT22;7603;49.432;11.418;2022-09-01T08:17:19;21.10;99.90
15013;DHT22;7603;49.432;11.418;2022-09-01T08:19:45;21.20;99.90
15013;DHT22;7603;49.432;11.418;2022-09-01T08:22:14;21.30;99.90
15013;DHT22;7603;49.432;11.418;2022-09-01T08:24:40;21.40;99.90
15013;DHT22;7603;49.432;11.418;2022-09-01T08:27:05;21.60;99.90
15013;DHT22;7603;49.432;11.418;2022-09-01T08:29:32;21.80;99.90
15013;DHT22;7603;49.432;11.418;2022-09-01T08:31:58;21.90;99.90
15013;DHT22;7603;49.432;11.418;2022-09-01T08:34:24;22.10;99.90
15013;DHT22;7603;49.432;11.418;2022-09-01T08:36:50;22.30;99.90
15013;DHT22;7603;49.432;11.418;2022-09-01T08:39:16;22.40;99.90
15013;DHT22;7603;49.432;11.418;2022-09-01T08:45:26;22.90;99.90
15013;DHT22;7603;49.432;11.418;2022-09-01T08:47:44;23.40;99.90
15013;DHT22;7603;49.432;11.418;2022-09-01T08:50:11;23.90;99.90
15013;DHT22;7603;49.432;11.418;2022-09-01T08:52:41;24.30;99.90
15013;DHT22;7603;49.432;11.418;2022-09-01T08:55:17;24.80;99.90
15013;DHT22;7603;49.432;11.418;2022-09-01T08:57:46;25.20;98.50
15013;DHT22;7603;49.432;11.418;2022-09-01T09:00:17;25.60;96.40
15013;DHT22;7603;49.432;11.418;2022-09-01T09:02:53;25.90;94.40
15013;DHT22;7603;49.432;11.418;2022-09-01T09:11:07;27.70;86.00
15013;DHT22;7603;49.432;11.418;2022-09-01T09:16:24;29.10;77.10
15013;DHT22;7603;49.432;11.418;2022-09-01T09:19:06;29.80;72.00
15013;DHT22;7603;49.432;11.418;2022-09-01T09:21:38;30.50;68.30
15013;DHT22;7603;49.432;11.418;2022-09-01T09:24:26;31.00;65.40
15013;DHT22;7603;49.432;11.418;2022-09-01T09:27:33;31.40;62.80
15013;DHT22;7603;49.432;11.418;2022-09-01T09:30:07;32.10;60.10
15013;DHT22;7603;49.432;11.418;2022-09-01T09:32:51;32.90;57.70
15013;DHT22;7603;49.432;11.418;2022-09-01T09:35:22;33.30;55.40
15013;DHT22;7603;49.432;11.418;2022-09-01T09:37:48;32.90;54.20
15013;DHT22;7603;49.432;11.418;2022-09-01T09:40:17;32.50;54.50
15013;DHT22;7603;49.432;11.418;2022-09-01T09:47:49;32.90;52.40
15013;DHT22;7603;49.432;11.418;2022-09-01T09:50:31;33.60;51.20
15013;DHT22;7603;49.432;11.418;2022-09-01T09:55:59;34.40;47.60
15013;DHT22;7603;49.432;11.418;2022-09-01T09:58:37;34.40;47.40
15013;DHT22;7603;49.432;11.418;2022-09-01T10:01:11;34.70;47.80
15013;DHT22;7603;49.432;11.418;2022-09-01T10:03:49;35.20;46.10
15013;DHT22;7603;49.432;11.418;2022-09-01T10:06:35;35.50;45.40
15013;DHT22;7603;49.432;11.418;2022-09-01T10:09:51;35.20;45.10
15013;DHT22;7603;49.432;11.418;2022-09-01T10:11:53;34.60;45.40
15013;DHT22;7603;49.432;11.418;2022-09-01T10:14:24;34.30;45.80
15013;DHT22;7603;49.432;11.418;2022-09-01T10:16:57;34.80;46.00
15013;DHT22;7603;49.432;11.418;2022-09-01T10:19:25;35.30;44.90
15013;DHT22;7603;49.432;11.418;2022-09-01T10:21:53;35.60;44.40
15013;DHT22;7603;49.432;11.418;2022-09-01T10:26:54;36.60;43.00
15013;DHT22;7603;49.432;11.418;2022-09-01T10:29:31;37.30;41.80
15013;DHT22;7603;49.432;11.418;2022-09-01T10:31:59;38.20;41.40
15013;DHT22;7603;49.432;11.418;2022-09-01T10:34:31;39.00;39.90
15013;DHT22;7603;49.432;11.418;2022-09-01T10:36:59;39.00;39.50
15013;DHT22;7603;49.432;11.418;2022-09-01T10:39:25;38.30;39.50
15013;DHT22;7603;49.432;11.418;2022-09-01T10:41:55;37.10;39.80
15013;DHT22;7603;49.432;11.418;2022-09-01T10:44:30;36.10;40.80
15013;DHT22;7603;49.432;11.418;2022-09-01T10:47:08;35.00;42.10
15013;DHT22;7603;49.432;11.418;2022-09-01T10:52:00;32.90;44.00
15013;DHT22;7603;49.432;11.418;2022-09-01T11:13:50;28.20;53.30
15013;DHT22;7603;49.432;11.418;2022-09-01T11:18:52;27.60;54.30
15013;DHT22;7603;49.432;11.418;2022-09-01T11:21:36;27.40;54.40
15013;DHT22;7603;49.432;11.418;2022-09-01T11:27:05;27.40;55.80
15013;DHT22;7603;49.432;11.418;2022-09-01T11:29:57;27.30;55.80
15013;DHT22;7603;49.432;11.418;2022-09-01T11:32:30;27.30;55.80
15013;DHT22;7603;49.432;11.418;2022-09-01T11:34:56;27.40;56.00
15013;DHT22;7603;49.432;11.418;2022-09-01T11:37:24;27.50;55.90
15013;DHT22;7603;49.432;11.418;2022-09-01T11:39:53;27.50;55.90
15013;DHT22;7603;49.432;11.418;2022-09-01T11:42:24;27.50;56.10
15013;DHT22;7603;49.432;11.418;2022-09-01T11:45:04;27.50;56.40
15013;DHT22;7603;49.432;11.418;2022-09-01T11:47:44;27.60;56.70
15013;DHT22;7603;49.432;11.418;2022-09-01T11:50:23;27.80;55.90
15013;DHT22;7603;49.432;11.418;2022-09-01T11:53:09;28.10;55.90
15013;DHT22;7603;49.432;11.418;2022-09-01T11:55:38;28.40;53.90
15013;DHT22;7603;49.432;11.418;2022-09-01T11:58:09;28.70;52.70
15013;DHT22;7603;49.432;11.418;2022-09-01T12:00:37;28.80;52.30
15013;DHT22;7603;49.432;11.418;2022-09-01T12:03:17;28.80;52.40
15013;DHT22;7603;49.432;11.418;2022-09-01T12:05:45;28.70;51.40
15013;DHT22;7603;49.432;11.418;2022-09-01T12:08:13;28.50;51.80
15013;DHT22;7603;49.432;11.418;2022-09-01T12:10:41;28.50;52.40
15013;DHT22;7603;49.432;11.418;2022-09-01T12:13:18;28.90;51.60
15013;DHT22;7603;49.432;11.418;2022-09-01T12:15:53;29.10;50.80
15013;DHT22;7603;49.432;11.418;2022-09-01T12:18:22;29.10;50.50
15013;DHT22;7603;49.432;11.418;2022-09-01T12:20:50;29.10;50.90
15013;DHT22;7603;49.432;11.418;2022-09-01T12:25:53;29.50;50.60
15013;DHT22;7603;49.432;11.418;2022-09-01T12:28:26;29.70;50.30
15013;DHT22;7603;49.432;11.418;2022-09-01T12:30:54;30.10;50.20
15013;DHT22;7603;49.432;11.418;2022-09-01T12:33:22;30.80;49.10
15013;DHT22;7603;49.432;11.418;2022-09-01T12:35:49;31.50;47.90
15013;DHT22;7603;49.432;11.418;2022-09-01T12:38:27;32.30;46.50
15013;DHT22;7603;49.432;11.418;2022-09-01T12:40:55;32.80;45.20
15013;DHT22;7603;49.432;11.418;2022-09-01T12:43:34;33.50;44.40
15013;DHT22;7603;49.432;11.418;2022-09-01T12:46:01;34.70;42.80
15013;DHT22;7603;49.432;11.418;2022-09-01T12:48:40;35.90;42.00
15013;DHT22;7603;49.432;11.418;2022-09-01T12:51:14;36.60;40.00
15013;DHT22;7603;49.432;11.418;2022-09-01T12:53:56;37.00;39.40
15013;DHT22;7603;49.432;11.418;2022-09-01T12:56:33;37.40;38.10
15013;DHT22;7603;49.432;11.418;2022-09-01T12:59:13;37.80;37.90
15013;DHT22;7603;49.432;11.418;2022-09-01T13:01:44;37.60;37.40
15013;DHT22;7603;49.432;11.418;2022-09-01T13:04:30;37.20;38.20
15013;DHT22;7603;49.432;11.418;2022-09-01T13:07:04;37.10;38.40
15013;DHT22;7603;49.432;11.418;2022-09-01T13:09:30;37.10;38.00
15013;DHT22;7603;49.432;11.418;2022-09-01T13:12:15;37.20;38.20
15013;DHT22;7603;49.432;11.418;2022-09-01T13:14:41;37.20;37.80
15013;DHT22;7603;49.432;11.418;2022-09-01T13:17:07;37.20;37.70
15013;DHT22;7603;49.432;11.418;2022-09-01T13:19:32;37.10;37.50
15013;DHT22;7603;49.432;11.418;2022-09-01T13:21:58;37.60;37.50
15013;DHT22;7603;49.432;11.418;2022-09-01T13:24:24;39.00;35.70
15013;DHT22;7603;49.432;11.418;2022-09-01T13:26:50;40.60;34.30
15013;DHT22;7603;49.432;11.418;2022-09-01T13:29:20;42.40;33.20
15013;DHT22;7603;49.432;11.418;2022-09-01T13:31:45;44.10;30.60
15013;DHT22;7603;49.432;11.418;2022-09-01T13:34:11;44.50;29.10
15013;DHT22;7603;49.432;11.418;2022-09-01T13:36:37;43.80;28.80
15013;DHT22;7603;49.432;11.418;2022-09-01T13:39:02;43.20;29.60
15013;DHT22;7603;49.432;11.418;2022-09-01T13:41:28;42.30;30.20
15013;DHT22;7603;49.432;11.418;2022-09-01T13:43:56;41.00;31.40
15013;DHT22;7603;49.432;11.418;2022-09-01T13:46:23;39.30;31.90
15013;DHT22;7603;49.432;11.418;2022-09-01T13:48:50;37.70;33.60
15013;DHT22;7603;49.432;11.418;2022-09-01T13:51:26;36.20;35.20
15013;DHT22;7603;49.432;11.418;2022-09-01T13:53:52;34.90;36.70
15013;DHT22;7603;49.432;11.418;2022-09-01T13:56:18;33.80;37.50
15013;DHT22;7603;49.432;11.418;2022-09-01T13:58:44;32.90;38.10
15013;DHT22;7603;49.432;11.418;2022-09-01T14:01:10;32.30;38.80
15013;DHT22;7603;49.432;11.418;2022-09-01T14:03:40;31.90;39.90
15013;DHT22;7603;49.432;11.418;2022-09-01T14:06:06;31.40;40.30
15013;DHT22;7603;49.432;11.418;2022-09-01T14:08:31;31.10;41.40
15013;DHT22;7603;49.432;11.418;2022-09-01T14:10:58;30.70;42.60
15013;DHT22;7603;49.432;11.418;2022-09-01T14:13:24;30.30;42.60
15013;DHT22;7603;49.432;11.418;2022-09-01T14:15:51;30.00;43.70
15013;DHT22;7603;49.432;11.418;2022-09-01T14:18:18;29.70;44.80
15013;DHT22;7603;49.432;11.418;2022-09-01T14:20:46;29.50;45.50
15013;DHT22;7603;49.432;11.418;2022-09-01T14:23:13;29.20;45.40
15013;DHT22;7603;49.432;11.418;2022-09-01T14:25:45;29.00;46.20
15013;DHT22;7603;49.432;11.418;2022-09-01T14:28:11;28.60;46.60
15013;DHT22;7603;49.432;11.418;2022-09-01T14:30:39;28.30;47.30
15013;DHT22;7603;49.432;11.418;2022-09-01T14:33:07;28.10;48.30
15013;DHT22;7603;49.432;11.418;2022-09-01T14:35:32;28.10;48.90
15013;DHT22;7603;49.432;11.418;2022-09-01T14:37:59;28.00;49.70
15013;DHT22;7603;49.432;11.418;2022-09-01T14:40:26;28.00;49.80
15013;DHT22;7603;49.432;11.418;2022-09-01T14:42:53;28.00;49.90
15013;DHT22;7603;49.432;11.418;2022-09-01T14:45:25;28.40;49.40
15013;DHT22;7603;49.432;11.418;2022-09-01T14:47:54;29.90;48.10
15013;DHT22;7603;49.432;11.418;2022-09-01T14:50:20;31.10;45.90
15013;DHT22;7603;49.432;11.418;2022-09-01T14:52:47;32.40;44.10
15013;DHT22;7603;49.432;11.418;2022-09-01T14:55:13;33.70;41.60
15013;DHT22;7603;49.432;11.418;2022-09-01T14:57:39;34.60;40.50
15013;DHT22;7603;49.432;11.418;2022-09-01T15:00:08;35.20;39.00
15013;DHT22;7603;49.432;11.418;2022-09-01T15:02:35;35.90;37.40
15013;DHT22;7603;49.432;11.418;2022-09-01T15:05:01;37.20;36.10
15013;DHT22;7603;49.432;11.418;2022-09-01T15:07:27;38.70;33.70
15013;DHT22;7603;49.432;11.418;2022-09-01T15:09:52;40.30;32.20
15013;DHT22;7603;49.432;11.418;2022-09-01T15:12:18;41.40;31.20
15013;DHT22;7603;49.432;11.418;2022-09-01T15:14:44;42.40;29.40
15013;DHT22;7603;49.432;11.418;2022-09-01T15:17:09;43.30;28.80
15013;DHT22;7603;49.432;11.418;2022-09-01T15:19:35;44.10;28.20
15013;DHT22;7603;49.432;11.418;2022-09-01T15:22:01;44.90;28.10
15013;DHT22;7603;49.432;11.418;2022-09-01T15:24:26;45.60;27.60
15013;DHT22;7603;49.432;11.418;2022-09-01T15:26:52;46.10;26.90
15013;DHT22;7603;49.432;11.418;2022-09-01T15:29:18;46.30;27.00
15013;DHT22;7603;49.432;11.418;2022-09-01T15:31:44;45.30;26.90
15013;DHT22;7603;49.432;11.418;2022-09-01T15:34:10;44.10;27.50
15013;DHT22;7603;49.432;11.418;2022-09-01T15:36:39;42.90;28.50
15013;DHT22;7603;49.432;11.418;2022-09-01T15:39:07;41.30;29.20
15013;DHT22;7603;49.432;11.418;2022-09-01T15:41:33;40.80;30.00
15013;DHT22;7603;49.432;11.418;2022-09-01T15:44:01;40.90;30.20
15013;DHT22;7603;49.432;11.418;2022-09-01T15:46:30;40.10;30.50
15013;DHT22;7603;49.432;11.418;2022-09-01T15:48:59;38.90;31.10
15013;DHT22;7603;49.432;11.418;2022-09-01T15:51:31;37.40;32.20
15013;DHT22;7603;49.432;11.418;2022-09-01T15:54:01;35.90;33.70
15013;DHT22;7603;49.432;11.418;2022-09-01T15:56:28;34.70;35.30
15013;DHT22;7603;49.432;11.418;2022-09-01T15:58:56;33.70;36.20
15013;DHT22;7603;49.432;11.418;2022-09-01T16:01:23;34.30;37.10
15013;DHT22;7603;49.432;11.418;2022-09-01T16:03:49;35.40;36.30
15013;DHT22;7603;49.432;11.418;2022-09-01T16:06:15;36.90;34.90
15013;DHT22;7603;49.432;11.418;2022-09-01T16:08:41;38.40;33.50
15013;DHT22;7603;49.432;11.418;2022-09-01T16:11:08;39.70;31.90
15013;DHT22;7603;49.432;11.418;2022-09-01T16:13:35;40.70;30.70
15013;DHT22;7603;49.432;11.418;2022-09-01T16:16:11;40.30;30.40
15013;DHT22;7603;49.432;11.418;2022-09-01T16:19:00;39.00;30.50
15013;DHT22;7603;49.432;11.418;2022-09-01T16:21:40;37.30;31.80
15013;DHT22;7603;49.432;11.418;2022-09-01T16:24:11;36.30;33.00
15013;DHT22;7603;49.432;11.418;2022-09-01T16:26:37;34.90;34.50
15013;DHT22;7603;49.432;11.418;2022-09-01T16:29:11;34.50;35.40
15013;DHT22;7603;49.432;11.418;2022-09-01T16:31:37;33.50;36.40
15013;DHT22;7603;49.432;11.418;2022-09-01T16:34:11;32.70;37.20
15013;DHT22;7603;49.432;11.418;2022-09-01T16:40:00;30.50;40.50